Southern Lily — 9VJK4 — position and weather

sailwx.info

Track history (hours):
 
Tides and Currents Weather Stations Pressure Air Temp Water Temp Dewpoint Dewpoint Depression Visibility Wind Speed Wind Dir Waves Ship Positions

Southern Lily

Last reported at 2015-Jun-25 11:26 UTC. Time now 2015-Jul-03 21:59 UTC.
Position S 36°13' E 174°57'.
Warning: this ship's position is 8 days out of date.

Length 146 m; draft 7.6 m.

Type: Cargo ship. MMSI: 565050000.

Date/timePositionNaut miles runAvg speedWind from/ knotsBaromVisibWave heightAir tempDewpointWater temp
2015-Jun-25 11:26S 36°13' E 174°57'8 8.6
2015-Jun-25 10:33S 36°20' E 174°59'8 8.4
2015-Jun-25 09:33S 36°29' E 174°60'9 8.8
2015-Jun-25 08:33S 36°37' E 174°57'9 8.9
2015-Jun-25 07:33S 36°45' E 174°50'7 6.7
2015-Jun-25 06:33S 36°51' E 174°47'0 0.0
2015-Jun-25 05:33S 36°51' E 174°47'0 0.0
2015-Jun-25 04:33S 36°51' E 174°47'0 0.0
2015-Jun-25 03:33S 36°51' E 174°47'0 0.0
2015-Jun-25 02:33S 36°51' E 174°47'0 0.0
2015-Jun-25 01:33S 36°51' E 174°47'0 0.0
2015-Jun-25 00:33S 36°51' E 174°47'0 0.0
2015-Jun-24 23:33S 36°51' E 174°47'0 0.0
2015-Jun-24 22:33S 36°51' E 174°47'0 0.0
2015-Jun-24 21:33S 36°51' E 174°47'0 0.0
2015-Jun-24 20:33S 36°51' E 174°47'0 0.0
2015-Jun-24 19:33S 36°51' E 174°47'0 0.0
2015-Jun-24 18:33S 36°51' E 174°47'0 0.0
2015-Jun-24 17:33S 36°51' E 174°47'0 0.0
2015-Jun-24 16:33S 36°51' E 174°47'0 0.0
2015-Jun-24 15:33S 36°51' E 174°47'0 0.0
2015-Jun-24 14:33S 36°51' E 174°47'0 0.0
2015-Jun-24 13:33S 36°51' E 174°47'0 0.0
2015-Jun-24 12:33S 36°51' E 174°47'0 0.0
2015-Jun-24 11:33S 36°51' E 174°47'0 0.0
2015-Jun-24 10:33S 36°51' E 174°47'0 0.0
2015-Jun-24 09:33S 36°51' E 174°47'0 0.0
2015-Jun-24 08:33S 36°51' E 174°47'0 0.0
2015-Jun-24 07:33S 36°51' E 174°47'0 0.0
2015-Jun-24 06:30S 36°51' E 174°47'0 0.0
2015-Jun-24 05:30S 36°51' E 174°47'0 0.0
2015-Jun-24 04:30S 36°51' E 174°47'0 0.0
2015-Jun-24 03:30S 36°51' E 174°47'0 0.0
2015-Jun-24 02:24S 36°51' E 174°47'0 0.0
2015-Jun-24 01:30S 36°51' E 174°47'0 0.0
2015-Jun-23 21:09S 36°51' E 174°47'0 0.0
2015-Jun-23 20:33S 36°51' E 174°47'0 0.0
2015-Jun-23 19:33S 36°51' E 174°47'0 0.0
2015-Jun-23 19:06S 36°51' E 174°47'  
Track history (hours):
 
Tides and Currents Weather Stations Pressure Air Temp Water Temp Dewpoint Dewpoint Depression Visibility Wind Speed Wind Dir Waves Ship Positions

Southern Lily

Last reported at 2015-Jun-25 11:26 UTC. Time now 2015-Jul-03 21:59 UTC.
Position S 36°13' E 174°57'.
Warning: this ship's position is 8 days out of date.

Length 146 m; draft 7.6 m.

Type: Cargo ship. MMSI: 565050000.

Date/timePositionNaut miles runAvg speedWind from/ knotsBaromVisibWave heightAir tempDewpointWater temp
2015-Jun-25 11:26S 36°13' E 174°57'8 8.6
2015-Jun-25 10:33S 36°20' E 174°59'8 8.4
2015-Jun-25 09:33S 36°29' E 174°60'9 8.8
2015-Jun-25 08:33S 36°37' E 174°57'9 8.9
2015-Jun-25 07:33S 36°45' E 174°50'7 6.7
2015-Jun-25 06:33S 36°51' E 174°47'0 0.0
2015-Jun-25 05:33S 36°51' E 174°47'0 0.0
2015-Jun-25 04:33S 36°51' E 174°47'0 0.0
2015-Jun-25 03:33S 36°51' E 174°47'0 0.0
2015-Jun-25 02:33S 36°51' E 174°47'0 0.0
2015-Jun-25 01:33S 36°51' E 174°47'0 0.0
2015-Jun-25 00:33S 36°51' E 174°47'0 0.0
2015-Jun-24 23:33S 36°51' E 174°47'0 0.0
2015-Jun-24 22:33S 36°51' E 174°47'0 0.0
2015-Jun-24 21:33S 36°51' E 174°47'0 0.0
2015-Jun-24 20:33S 36°51' E 174°47'0 0.0
2015-Jun-24 19:33S 36°51' E 174°47'0 0.0
2015-Jun-24 18:33S 36°51' E 174°47'0 0.0
2015-Jun-24 17:33S 36°51' E 174°47'0 0.0
2015-Jun-24 16:33S 36°51' E 174°47'0 0.0
2015-Jun-24 15:33S 36°51' E 174°47'0 0.0
2015-Jun-24 14:33S 36°51' E 174°47'0 0.0
2015-Jun-24 13:33S 36°51' E 174°47'0 0.0
2015-Jun-24 12:33S 36°51' E 174°47'0 0.0
2015-Jun-24 11:33S 36°51' E 174°47'0 0.0
2015-Jun-24 10:33S 36°51' E 174°47'0 0.0
2015-Jun-24 09:33S 36°51' E 174°47'0 0.0
2015-Jun-24 08:33S 36°51' E 174°47'0 0.0
2015-Jun-24 07:33S 36°51' E 174°47'0 0.0
2015-Jun-24 06:30S 36°51' E 174°47'0 0.0
2015-Jun-24 05:30S 36°51' E 174°47'0 0.0
2015-Jun-24 04:30S 36°51' E 174°47'0 0.0
2015-Jun-24 03:30S 36°51' E 174°47'0 0.0
2015-Jun-24 02:24S 36°51' E 174°47'0 0.0
2015-Jun-24 01:30S 36°51' E 174°47'0 0.0
2015-Jun-23 21:09S 36°51' E 174°47'0 0.0
2015-Jun-23 20:33S 36°51' E 174°47'0 0.0
2015-Jun-23 19:33S 36°51' E 174°47'0 0.0
2015-Jun-23 19:06S 36°51' E 174°47'  

Dump ship's entire track history